Address 0xc2525090781ff8807fde0dd5f28c4dee636ccbf0

 
Txn Hash Method
Block
From
To
Value [Txn Fee]
0x2e48ee1040e93fbf616971a6de3b3479e4c454e28f9b6c89390ecf7a76236bc10x1de9c881112661662021-09-27 1:23:5319 mins ago0xc2525090781ff8807fde0dd5f28c4dee636ccbf0OUT 0x215717cf68d43f3f92ed273690c8a7f4d682c9500 BNB0.000202925
0x57ce1869b602788084e4e2d12ebacc20686a8710663b74048cc96fa9082cc39eTransfer112651462021-09-27 0:31:391 hr 11 mins ago0xc2525090781ff8807fde0dd5f28c4dee636ccbf0SELF0xc2525090781ff8807fde0dd5f28c4dee636ccbf00 BNB0.00011655
0x96f76d743bdb05ee0c4fc8d2c92694241dd57290f0bd5a6f3af287aa2dbd1f0cTransfer112645282021-09-27 0:00:421 hr 42 mins ago0xc2525090781ff8807fde0dd5f28c4dee636ccbf0SELF0xc2525090781ff8807fde0dd5f28c4dee636ccbf00 BNB0.00016317
0x815ec3c5989c882e391da3198e31b5a90357b94fcc5a8c2b0080e33fe590c6da0x1de9c881112620142021-09-26 21:54:323 hrs 48 mins ago0xc2525090781ff8807fde0dd5f28c4dee636ccbf0OUT 0x215717cf68d43f3f92ed273690c8a7f4d682c9500 BNB0.000184255
0xb6326ae3a3382c688a729b8a3be0647f9cfe15685f42fa5c38e31a38de25d4360x1de9c881112612732021-09-26 21:17:084 hrs 26 mins ago0xc2525090781ff8807fde0dd5f28c4dee636ccbf0OUT 0xb4f7c63d1846038e0386d438a3cecd1cffa63ed70 BNB0.000903015
0xa771da7fe5bb4a1d81a798b0532185cc4edf6bab1e057b889c6da646eb6f9a200x1de9c881112612632021-09-26 21:16:384 hrs 26 mins ago0xc2525090781ff8807fde0dd5f28c4dee636ccbf0OUT 0x215717cf68d43f3f92ed273690c8a7f4d682c9500 BNB0.000184485
0x7539a77084bd363dc569e56e7fe30e07c404623fa917e2938dddcd3e98ae3cb70x1de9c881112610432021-09-26 21:05:384 hrs 37 mins ago0xc2525090781ff8807fde0dd5f28c4dee636ccbf0OUT 0x215717cf68d43f3f92ed273690c8a7f4d682c9500 BNB0.000265074
0xc4473afd7e9f94919d79d81d1b7e10a8ee072cc294159f594ce73acbb3fc89990x1de9c881112562832021-09-26 17:05:458 hrs 37 mins ago0xc2525090781ff8807fde0dd5f28c4dee636ccbf0OUT 0xb4f7c63d1846038e0386d438a3cecd1cffa63ed70 BNB0.000221305
0xd5f943d2e30cced66356a19c54b55685c646f97aa29cc7ef9b7f75f2419cac940x1de9c881112556352021-09-26 16:33:089 hrs 10 mins ago0xc2525090781ff8807fde0dd5f28c4dee636ccbf0OUT 0x215717cf68d43f3f92ed273690c8a7f4d682c9500 BNB0.00121069
0x2ac9b866e78e9ee91301f2b57b725424462e8a7ae9b7dd674f1af55bf024699b0x1de9c881112553792021-09-26 16:20:109 hrs 23 mins ago0xc2525090781ff8807fde0dd5f28c4dee636ccbf0OUT 0xb4f7c63d1846038e0386d438a3cecd1cffa63ed70 BNB0.0002070345
0x97be2eb9f49d4e651c24036420421d6c667dd18186a24fc20cf32f4b917e53400x1de9c881112553192021-09-26 16:16:549 hrs 26 mins ago0xc2525090781ff8807fde0dd5f28c4dee636ccbf0OUT 0xb4f7c63d1846038e0386d438a3cecd1cffa63ed70 BNB0.000322259
0x75fd6ede9ba578c3dbc0e1b0a57e184a35c62e74c430b2d8a7e348939ffaa4ea0x1de9c881112544322021-09-26 15:31:5010 hrs 11 mins ago0xc2525090781ff8807fde0dd5f28c4dee636ccbf0OUT 0x215717cf68d43f3f92ed273690c8a7f4d682c9500 BNB0.00018402
0x977938e367a73caee957d1acb66c52b13d9733e9b532b9ec40d66ed16fbb34870x1de9c881112543102021-09-26 15:25:4410 hrs 17 mins ago0xc2525090781ff8807fde0dd5f28c4dee636ccbf0OUT 0xb4f7c63d1846038e0386d438a3cecd1cffa63ed70 BNB0.000203445
0xcfee5f652a76f3ad019a405f123ade70541b2fff73a7d7bce7eb5f0beaa7c42e0x1de9c881112542922021-09-26 15:24:5010 hrs 18 mins ago0xc2525090781ff8807fde0dd5f28c4dee636ccbf0OUT 0x215717cf68d43f3f92ed273690c8a7f4d682c9500 BNB0.000221265
0xce145715fc7066d75d856fa1ffd7dbca1db6a6a273fb1b674dc823914843daa2Transfer112542302021-09-26 15:21:4410 hrs 21 mins ago0xc2525090781ff8807fde0dd5f28c4dee636ccbf0SELF0xc2525090781ff8807fde0dd5f28c4dee636ccbf00 BNB0.00011655
0xd3a62f7973550673c4cf5de3924d5c575409b81d5a92b5bff8f0b9c6dbaa18f8Transfer112539162021-09-26 15:06:0210 hrs 37 mins ago0xc2525090781ff8807fde0dd5f28c4dee636ccbf0SELF0xc2525090781ff8807fde0dd5f28c4dee636ccbf00 BNB0.00013986
0x2538817e65c979f37bdeddb87fb36c01d81d7b8dc6cc53713d2fdd6b51a540160x1de9c881112529282021-09-26 14:16:1511 hrs 27 mins ago0xc2525090781ff8807fde0dd5f28c4dee636ccbf0OUT 0x215717cf68d43f3f92ed273690c8a7f4d682c9500 BNB0.000265074
0x553fb3db8331dd1be3ec66da8ef0fe863fadd4a2f0a122d357e498e4b8b73b570x1de9c881112528602021-09-26 14:12:5111 hrs 30 mins ago0xc2525090781ff8807fde0dd5f28c4dee636ccbf0OUT 0xb4f7c63d1846038e0386d438a3cecd1cffa63ed70 BNB0.00022136
0xeb9cfdcdc131a0ad592ebe1aa7332969666270f9b79eb5435640de78214bd48c0x1de9c881112527622021-09-26 14:07:5011 hrs 35 mins ago0xc2525090781ff8807fde0dd5f28c4dee636ccbf0OUT 0xb4f7c63d1846038e0386d438a3cecd1cffa63ed70 BNB0.000220824
0x005618567f54098666dd3983ded4739b99008ba7aee75deaeabf308788e938680x1de9c881112527122021-09-26 14:05:2011 hrs 37 mins ago0xc2525090781ff8807fde0dd5f28c4dee636ccbf0OUT 0xb4f7c63d1846038e0386d438a3cecd1cffa63ed70 BNB0.000309113
0xae35a97d1652b620ff8bbe586e4135a953ec4128e45e5a7455c3a34d7eb876ad0x1de9c881112514112021-09-26 13:00:0312 hrs 43 mins ago0xc2525090781ff8807fde0dd5f28c4dee636ccbf0OUT 0x215717cf68d43f3f92ed273690c8a7f4d682c9500 BNB0.000184255
0x7118892b851f643d554d6922efa26157165dffbc6ced6623e6d505b145809e6f0x1de9c881112511042021-09-26 12:44:4012 hrs 58 mins ago0xc2525090781ff8807fde0dd5f28c4dee636ccbf0OUT 0x215717cf68d43f3f92ed273690c8a7f4d682c9500 BNB0.000184315
0x8db5bbdb0ed0db9f49308b828232206c928ada53caf7dbc0571665316cb28ac30x1de9c881112504242021-09-26 12:10:2713 hrs 32 mins ago0xc2525090781ff8807fde0dd5f28c4dee636ccbf0OUT 0x215717cf68d43f3f92ed273690c8a7f4d682c9500 BNB0.0002071059
0x7d9db37899a8b1539cc055d576a83e608af12e1a0d49826aa7e27267232f76f10x1de9c881112491782021-09-26 11:06:5414 hrs 36 mins ago0xc2525090781ff8807fde0dd5f28c4dee636ccbf0OUT 0xb4f7c63d1846038e0386d438a3cecd1cffa63ed70 BNB0.000184255
0x1a1028886dcd2ea86b4887560791aa40fd924cf3f530dfc40d54f568d26874170x1de9c881112490982021-09-26 11:02:5414 hrs 40 mins ago0xc2525090781ff8807fde0dd5f28c4dee636ccbf0OUT 0xb4f7c63d1846038e0386d438a3cecd1cffa63ed70 BNB0.000184255
[ Download CSV Export 
Parent Txn Hash Block From To Value
Loading

Contract Name:
0 BNB

Compiler Version
0

Optimization Enabled:
0 BNB

Other Settings:
-NA-
Block Transaction Gas Used Reward
Age Block Fee Address BC Fee Address Voting Power Jailed Incoming
Block Uncle Number Difficulty Gas Used Reward
Loading
Loading
Make sure to use the "Vote Down" button for any spammy posts, and the "Vote Up" for interesting conversations.